Time;durP1;ratioP1;P1;durP2;ratioP2;P2;SDS_P1;SDS_P2;PMS_P1;PMS_P2;Temp;Humidity;BMP_temperature;BMP_pressure;BME280_temperature;BME280_humidity;BME280_pressure;Samples;Min_cycle;Max_cycle;Signal;HPM_P1;HPM_P2
2023/11/22 00:00:42;;;;;;;105.80;16.75;;;12.80;99.90;;;;;;4982451;28;20046;-52
2023/11/22 00:03:07;;;;;;;120.85;18.30;;;12.80;99.90;;;;;;4982596;28;20492;-51
2023/11/22 00:05:33;;;;;;;100.10;16.70;;;12.80;99.90;;;;;;4966537;28;20029;-51
2023/11/22 00:07:58;;;;;;;110.43;15.85;;;12.70;99.90;;;;;;4982549;28;20047;-51
2023/11/22 00:10:24;;;;;;;123.13;17.38;;;12.70;99.90;;;;;;4982368;28;20024;-51
2023/11/22 00:12:50;;;;;;;103.05;17.60;;;12.70;99.90;;;;;;4967645;28;20042;-51
2023/11/22 00:15:18;;;;;;;112.15;16.42;;;12.70;99.90;;;;;;4967632;28;20047;-51
2023/11/22 00:17:44;;;;;;;108.60;16.42;;;12.70;99.90;;;;;;4982197;28;20027;-51
2023/11/22 00:20:10;;;;;;;100.57;15.90;;;12.60;99.90;;;;;;4982542;28;20043;-51
2023/11/22 00:22:36;;;;;;;92.72;15.15;;;12.60;99.90;;;;;;4984625;28;20028;-51
2023/11/22 00:25:03;;;;;;;88.88;15.55;;;12.60;99.90;;;;;;4986136;28;20038;-51
2023/11/22 00:27:32;;;;;;;96.88;15.77;;;12.60;99.90;;;;;;4969826;29;20043;-51
2023/11/22 00:29:58;;;;;;;83.65;14.52;;;12.60;99.90;;;;;;4969908;28;20046;-51
2023/11/22 00:32:23;;;;;;;99.93;15.38;;;12.60;99.90;;;;;;4969851;28;20028;-51
2023/11/22 00:34:49;;;;;;;108.32;15.65;;;12.60;99.90;;;;;;4985960;28;20042;-51
2023/11/22 00:37:15;;;;;;;85.60;14.18;;;12.60;99.90;;;;;;4970729;28;20058;-51
2023/11/22 00:39:41;;;;;;;95.35;16.17;;;12.50;99.90;;;;;;4985971;28;20079;-51
2023/11/22 00:42:07;;;;;;;88.63;15.27;;;12.60;99.90;;;;;;4985998;28;20078;-52
2023/11/22 00:44:33;;;;;;;93.13;14.95;;;12.60;99.90;;;;;;4985871;28;20487;-51
2023/11/22 00:46:58;;;;;;;72.90;12.95;;;12.50;99.90;;;;;;4969648;28;20042;-51
2023/11/22 00:49:24;;;;;;;79.10;13.05;;;12.50;99.90;;;;;;4985657;28;20024;-51
2023/11/22 00:51:50;;;;;;;79.07;13.63;;;12.50;99.90;;;;;;4969460;28;20043;-51
2023/11/22 00:54:16;;;;;;;70.35;12.98;;;12.50;99.90;;;;;;4970647;28;20055;-51
2023/11/22 00:56:42;;;;;;;68.45;11.95;;;12.50;99.90;;;;;;4985554;28;20403;-51
2023/11/22 00:59:08;;;;;;;72.15;13.52;;;12.50;99.90;;;;;;4985581;28;20019;-51
2023/11/22 01:01:34;;;;;;;66.10;12.77;;;12.40;99.90;;;;;;4985320;28;20031;-52
2023/11/22 01:03:59;;;;;;;65.72;11.55;;;12.50;99.90;;;;;;4985425;28;20038;-51
2023/11/22 01:06:25;;;;;;;61.63;12.68;;;12.50;99.90;;;;;;4971066;28;20027;-51
2023/11/22 01:08:50;;;;;;;79.95;12.63;;;12.40;99.90;;;;;;4970607;28;20027;-52
2023/11/22 01:11:16;;;;;;;62.63;12.10;;;12.40;99.90;;;;;;4985371;28;20060;-52
2023/11/22 01:13:42;;;;;;;70.60;12.23;;;12.40;99.90;;;;;;4985434;28;20034;-51
2023/11/22 01:16:09;;;;;;;58.05;11.43;;;12.40;99.90;;;;;;4970307;28;20471;-52
2023/11/22 01:18:35;;;;;;;69.53;12.60;;;12.40;99.90;;;;;;4985047;28;20038;-51
2023/11/22 01:21:00;;;;;;;79.15;12.98;;;12.40;99.90;;;;;;4985105;28;20024;-51
2023/11/22 01:23:27;;;;;;;63.55;13.30;;;12.40;99.90;;;;;;4970328;28;20361;-51
2023/11/22 01:25:53;;;;;;;66.57;13.45;;;12.40;99.90;;;;;;4984899;28;20031;-51
2023/11/22 01:28:19;;;;;;;66.40;12.13;;;12.30;99.90;;;;;;4984972;28;20049;-51
2023/11/22 01:30:48;;;;;;;60.97;11.80;;;12.40;99.90;;;;;;4984912;28;20031;-51
2023/11/22 01:33:14;;;;;;;74.75;13.77;;;12.30;99.90;;;;;;4969398;28;20067;-51
2023/11/22 01:35:40;;;;;;;55.47;12.88;;;12.30;99.90;;;;;;4984997;28;20027;-52
2023/11/22 01:38:05;;;;;;;59.80;12.30;;;12.30;99.90;;;;;;4984613;28;20119;-51
2023/11/22 01:40:31;;;;;;;60.63;12.88;;;12.30;99.90;;;;;;4969739;28;20027;-52
2023/11/22 01:42:58;;;;;;;63.95;12.55;;;12.30;99.90;;;;;;4984577;28;20054;-51
2023/11/22 01:45:24;;;;;;;56.00;12.45;;;12.30;99.90;;;;;;4968421;29;20032;-51
2023/11/22 01:47:50;;;;;;;59.42;12.63;;;12.30;99.90;;;;;;4968510;28;20035;-51
2023/11/22 01:50:16;;;;;;;55.65;12.43;;;12.30;99.90;;;;;;4984377;28;20023;-52
2023/11/22 01:52:42;;;;;;;52.88;11.77;;;12.30;99.90;;;;;;4984408;28;20047;-51
2023/11/22 01:55:09;;;;;;;53.53;11.45;;;12.20;99.90;;;;;;4984477;28;20037;-51
2023/11/22 01:57:35;;;;;;;52.40;12.50;;;12.30;99.90;;;;;;4984593;28;20027;-51
2023/11/22 02:00:03;;;;;;;48.50;11.95;;;12.30;99.90;;;;;;4984347;28;20128;-52
2023/11/22 02:02:29;;;;;;;52.55;11.43;;;12.20;99.90;;;;;;4984362;28;20031;-51
2023/11/22 02:04:55;;;;;;;56.95;11.55;;;12.20;99.90;;;;;;4968085;28;20028;-51
2023/11/22 02:07:20;;;;;;;49.50;11.00;;;12.20;99.90;;;;;;4984393;28;20043;-51
2023/11/22 02:09:46;;;;;;;42.72;10.68;;;12.20;99.90;;;;;;4984208;28;20023;-51
2023/11/22 02:12:12;;;;;;;52.30;11.07;;;12.20;99.90;;;;;;4968110;28;20038;-51
2023/11/22 02:14:40;;;;;;;44.47;11.20;;;12.20;99.90;;;;;;4984185;28;20027;-51
2023/11/22 02:17:06;;;;;;;54.75;10.60;;;12.20;99.90;;;;;;4984082;28;20031;-51
2023/11/22 02:19:31;;;;;;;43.95;10.95;;;12.20;99.90;;;;;;4983929;28;20115;-51
2023/11/22 02:21:57;;;;;;;54.22;12.52;;;12.20;99.90;;;;;;4984013;28;20027;-51
2023/11/22 02:24:22;;;;;;;45.78;11.75;;;12.10;99.90;;;;;;4969113;28;20023;-51
2023/11/22 02:26:48;;;;;;;53.13;10.40;;;12.20;99.90;;;;;;4968941;28;20475;-51
2023/11/22 02:29:14;;;;;;;48.47;11.20;;;12.20;99.90;;;;;;4983845;28;20471;-51
2023/11/22 02:31:41;;;;;;;43.83;10.75;;;12.10;99.90;;;;;;4968902;28;20464;-51
2023/11/22 02:34:07;;;;;;;39.42;10.65;;;12.20;99.90;;;;;;4983535;28;20070;-51
2023/11/22 02:36:32;;;;;;;44.05;11.18;;;12.20;99.90;;;;;;4983737;28;20031;-51
2023/11/22 02:38:58;;;;;;;43.13;10.35;;;12.10;99.90;;;;;;4968599;28;20491;-51
2023/11/22 02:41:25;;;;;;;43.78;10.38;;;12.10;99.90;;;;;;4983775;28;20026;-52
2023/11/22 02:43:50;;;;;;;42.20;10.60;;;12.10;99.90;;;;;;4968700;28;20027;-51
2023/11/22 02:46:16;;;;;;;45.97;10.38;;;12.10;99.90;;;;;;4982523;28;20387;-51
2023/11/22 02:48:41;;;;;;;31.73;10.32;;;12.10;99.90;;;;;;4968597;28;20031;-51
2023/11/22 02:51:07;;;;;;;34.03;10.68;;;12.10;99.90;;;;;;4983645;28;20151;-51
2023/11/22 02:53:33;;;;;;;34.45;9.55;;;12.00;99.90;;;;;;4968469;28;20039;-51
2023/11/22 02:56:02;;;;;;;34.42;10.75;;;12.10;99.90;;;;;;4967232;29;20033;-52
2023/11/22 02:58:29;;;;;;;33.80;9.85;;;12.10;99.90;;;;;;4968663;28;20031;-51
2023/11/22 03:00:57;;;;;;;36.15;10.73;;;12.00;99.90;;;;;;4983378;28;20079;-51
2023/11/22 03:03:23;;;;;;;42.42;10.40;;;12.00;99.90;;;;;;4983019;28;20031;-51
2023/11/22 03:05:50;;;;;;;31.10;9.75;;;12.00;99.90;;;;;;4983238;28;20027;-51
2023/11/22 03:08:16;;;;;;;34.10;9.75;;;12.00;99.90;;;;;;4967274;29;20236;-51
2023/11/22 03:10:41;;;;;;;32.13;9.55;;;12.00;99.90;;;;;;4983161;28;20035;-51
2023/11/22 03:13:08;;;;;;;34.30;10.50;;;12.00;99.90;;;;;;4968664;28;20035;-51
2023/11/22 03:15:34;;;;;;;34.53;10.57;;;12.00;99.90;;;;;;4983252;28;20550;-51
2023/11/22 03:18:01;;;;;;;29.20;10.32;;;12.00;99.90;;;;;;4983160;28;20059;-51
2023/11/22 03:20:27;;;;;;;30.63;9.98;;;12.00;99.90;;;;;;4967064;28;20104;-51
2023/11/22 03:22:52;;;;;;;35.75;11.00;;;12.00;99.90;;;;;;4983105;28;20027;-51
2023/11/22 03:25:18;;;;;;;31.95;10.15;;;12.00;99.90;;;;;;4982966;28;20038;-51
2023/11/22 03:27:44;;;;;;;38.95;9.88;;;12.00;99.90;;;;;;4968254;28;20031;-51
2023/11/22 03:30:11;;;;;;;34.33;10.82;;;11.90;99.90;;;;;;4966693;28;20031;-51
2023/11/22 03:32:39;;;;;;;33.45;10.52;;;11.90;99.90;;;;;;4968111;28;20035;-51
2023/11/22 03:35:06;;;;;;;34.13;9.02;;;11.90;99.90;;;;;;4982674;28;20091;-51
2023/11/22 03:37:32;;;;;;;29.98;10.07;;;11.90;99.90;;;;;;4982600;28;20039;-51
2023/11/22 03:39:58;;;;;;;35.22;9.98;;;11.90;99.90;;;;;;4982873;28;20023;-51
2023/11/22 03:42:23;;;;;;;24.98;9.73;;;11.90;99.90;;;;;;4966632;29;20037;-51
2023/11/22 03:44:49;;;;;;;34.50;10.18;;;11.90;99.90;;;;;;4982816;28;20028;-51
2023/11/22 03:47:15;;;;;;;29.65;9.30;;;11.90;99.90;;;;;;4966594;28;20098;-51
2023/11/22 03:49:40;;;;;;;25.38;9.50;;;11.90;99.90;;;;;;4982712;28;20196;-51
2023/11/22 03:52:06;;;;;;;29.67;10.70;;;11.80;99.90;;;;;;4969306;28;20035;-51
2023/11/22 03:54:32;;;;;;;34.05;10.52;;;11.80;99.90;;;;;;4970279;28;20035;-51
2023/11/22 03:56:58;;;;;;;34.30;9.90;;;11.80;99.90;;;;;;4967684;28;20034;-51
2023/11/22 03:59:24;;;;;;;37.30;10.68;;;11.80;99.90;;;;;;4986561;28;20020;-51
2023/11/22 04:01:50;;;;;;;31.45;9.65;;;11.80;99.90;;;;;;4986670;28;20038;-51
2023/11/22 04:04:16;;;;;;;28.52;10.20;;;11.80;99.90;;;;;;4986676;28;20027;-51
2023/11/22 04:06:41;;;;;;;33.60;9.68;;;11.80;99.90;;;;;;4986633;28;20047;-51
2023/11/22 04:09:08;;;;;;;30.60;10.32;;;11.80;99.90;;;;;;4986590;28;20084;-51
2023/11/22 04:11:34;;;;;;;28.85;9.52;;;11.80;99.90;;;;;;4970223;28;20093;-51
2023/11/22 04:14:00;;;;;;;29.50;9.63;;;11.80;99.90;;;;;;4986625;28;20024;-51
2023/11/22 04:16:25;;;;;;;23.23;9.52;;;11.80;99.90;;;;;;4971312;28;20031;-51
2023/11/22 04:18:51;;;;;;;26.00;9.27;;;11.80;99.90;;;;;;4986193;28;20028;-51
2023/11/22 04:21:17;;;;;;;31.98;9.15;;;11.80;99.90;;;;;;4969981;29;20019;-51
2023/11/22 04:23:42;;;;;;;24.20;8.55;;;11.80;99.90;;;;;;4970159;29;20164;-51
2023/11/22 04:26:08;;;;;;;21.52;8.80;;;11.80;99.90;;;;;;4971392;28;20031;-51
2023/11/22 04:28:34;;;;;;;24.92;8.73;;;11.80;99.90;;;;;;4971391;29;20035;-51
2023/11/22 04:30:59;;;;;;;30.27;8.93;;;11.80;99.90;;;;;;4969838;29;20023;-51
2023/11/22 04:33:27;;;;;;;21.70;8.85;;;11.80;99.90;;;;;;4986194;28;20096;-51
2023/11/22 04:35:53;;;;;;;25.73;9.10;;;11.70;99.90;;;;;;4985719;28;20102;-51
2023/11/22 04:38:19;;;;;;;26.98;9.43;;;11.70;99.90;;;;;;4969539;29;20043;-51
2023/11/22 04:40:45;;;;;;;25.88;9.45;;;11.70;99.90;;;;;;4971044;28;20066;-51
2023/11/22 04:43:10;;;;;;;31.15;10.20;;;11.70;99.90;;;;;;4971203;29;20028;-51
2023/11/22 04:45:36;;;;;;;29.10;9.40;;;11.70;99.90;;;;;;4985841;28;20035;-51
2023/11/22 04:48:02;;;;;;;24.30;8.93;;;11.70;99.90;;;;;;4985678;28;20431;-51
2023/11/22 04:50:27;;;;;;;27.85;8.77;;;11.70;99.90;;;;;;4985711;28;20035;-51
2023/11/22 04:52:53;;;;;;;24.52;9.32;;;11.70;99.90;;;;;;4971068;28;20035;-51
2023/11/22 04:55:19;;;;;;;28.95;9.93;;;11.70;99.90;;;;;;4970811;28;20027;-51
2023/11/22 04:57:45;;;;;;;22.70;8.88;;;11.70;99.90;;;;;;4985589;28;20035;-51
2023/11/22 05:00:11;;;;;;;26.13;9.38;;;11.70;99.90;;;;;;4985490;28;20023;-52
2023/11/22 05:02:37;;;;;;;24.35;9.25;;;11.70;99.90;;;;;;4985412;28;20035;-51
2023/11/22 05:05:03;;;;;;;21.40;9.27;;;11.60;99.90;;;;;;4985269;28;20023;-51
2023/11/22 05:07:29;;;;;;;20.33;8.70;;;11.60;99.90;;;;;;4970607;28;20054;-51
2023/11/22 05:09:55;;;;;;;17.15;8.40;;;11.70;99.90;;;;;;4969588;28;20027;-51
2023/11/22 05:12:20;;;;;;;26.10;8.25;;;11.60;99.90;;;;;;4985244;28;20038;-51
2023/11/22 05:14:46;;;;;;;25.42;8.40;;;11.60;99.90;;;;;;4985377;28;20078;-51
2023/11/22 05:17:14;;;;;;;23.80;8.80;;;11.60;99.90;;;;;;4985300;28;20086;-51
2023/11/22 05:19:42;;;;;;;24.10;9.50;;;11.70;99.90;;;;;;4984983;28;20027;-51
2023/11/22 05:22:07;;;;;;;25.42;9.25;;;11.60;99.90;;;;;;4985079;28;20027;-51
2023/11/22 05:24:34;;;;;;;32.40;9.15;;;11.60;99.90;;;;;;4970135;28;20558;-51
2023/11/22 05:27:00;;;;;;;20.98;7.70;;;11.60;99.90;;;;;;4984730;28;20046;-51
2023/11/22 05:29:26;;;;;;;22.67;9.40;;;11.60;99.90;;;;;;4983679;28;20023;-51
2023/11/22 05:31:52;;;;;;;21.85;8.25;;;11.60;99.90;;;;;;4966502;28;20058;-51
2023/11/22 05:34:18;;;;;;;25.02;8.23;;;11.60;99.90;;;;;;4950847;29;20036;-51
2023/11/22 05:36:43;;;;;;;24.15;8.70;;;11.60;99.90;;;;;;4965359;29;20043;-51
2023/11/22 05:39:09;;;;;;;29.85;8.40;;;11.60;99.90;;;;;;4965526;29;20032;-51
2023/11/22 05:41:35;;;;;;;49.45;9.40;;;11.60;99.90;;;;;;4950765;29;20032;-51
2023/11/22 05:44:02;;;;;;;58.15;11.65;;;11.60;99.90;;;;;;4965330;29;20024;-51
2023/11/22 05:46:28;;;;;;;54.25;10.70;;;11.60;99.90;;;;;;4950445;29;20086;-51
2023/11/22 05:48:54;;;;;;;48.63;9.30;;;11.60;99.90;;;;;;4965457;29;20035;-51
2023/11/22 05:51:20;;;;;;;152.40;18.48;;;11.60;99.90;;;;;;4965288;29;20032;-51
2023/11/22 05:53:45;;;;;;;84.75;12.95;;;11.60;99.90;;;;;;4965258;28;20149;-51
2023/11/22 05:56:11;;;;;;;122.78;16.02;;;11.60;99.90;;;;;;4950297;29;20086;-51
2023/11/22 05:58:40;;;;;;;81.50;13.27;;;11.60;99.90;;;;;;4950787;29;20032;-51
2023/11/22 06:01:06;;;;;;;86.60;14.15;;;11.60;99.90;;;;;;4964912;29;20102;-51
2023/11/22 06:03:32;;;;;;;94.30;14.25;;;11.60;99.90;;;;;;4964994;28;20548;-51
2023/11/22 06:05:57;;;;;;;71.00;11.82;;;11.60;99.90;;;;;;4964947;29;20388;-51
2023/11/22 06:08:23;;;;;;;58.17;10.98;;;11.60;99.90;;;;;;4964795;29;20056;-51
2023/11/22 06:10:49;;;;;;;57.15;11.35;;;11.50;99.90;;;;;;4950256;29;20035;-52
2023/11/22 06:13:14;;;;;;;69.18;10.48;;;11.60;99.90;;;;;;4964923;29;20042;-51
2023/11/22 06:15:40;;;;;;;66.85;10.95;;;11.60;99.90;;;;;;4950247;29;20028;-51
2023/11/22 06:18:06;;;;;;;45.70;10.18;;;11.60;99.90;;;;;;4964842;29;20027;-51
2023/11/22 06:20:31;;;;;;;59.88;10.25;;;11.50;99.90;;;;;;4964649;28;20445;-51
2023/11/22 06:22:57;;;;;;;46.47;8.55;;;11.50;99.90;;;;;;4965004;29;20048;-51
2023/11/22 06:25:22;;;;;;;50.53;10.07;;;11.50;99.90;;;;;;4949815;29;20040;-51
2023/11/22 06:27:48;;;;;;;61.35;11.25;;;11.50;99.90;;;;;;4964731;28;20063;-51
2023/11/22 06:30:14;;;;;;;54.15;10.38;;;11.50;99.90;;;;;;4948608;29;20032;-51
2023/11/22 06:32:42;;;;;;;56.75;9.95;;;11.50;99.90;;;;;;4949880;29;20040;-51
2023/11/22 06:35:09;;;;;;;58.47;10.77;;;11.50;99.90;;;;;;4964188;29;20058;-51
2023/11/22 06:37:34;;;;;;;50.10;9.98;;;11.50;99.90;;;;;;4964146;29;20063;-51
2023/11/22 06:40:00;;;;;;;57.33;9.70;;;11.50;99.90;;;;;;4949769;29;20028;-51
2023/11/22 06:42:26;;;;;;;53.22;9.30;;;11.50;99.90;;;;;;4964392;29;20032;-51
2023/11/22 06:44:53;;;;;;;44.63;10.05;;;11.50;99.90;;;;;;4964223;28;20031;-51
2023/11/22 06:47:19;;;;;;;32.72;8.55;;;11.50;99.90;;;;;;4949593;29;20039;-51
2023/11/22 06:49:44;;;;;;;43.05;9.35;;;11.50;99.90;;;;;;4964091;29;20034;-51
2023/11/22 06:52:10;;;;;;;53.13;9.25;;;11.50;99.90;;;;;;4949496;29;20051;-51
2023/11/22 06:54:36;;;;;;;40.97;9.20;;;11.50;99.90;;;;;;4964321;29;20031;-51
2023/11/22 06:57:02;;;;;;;44.10;9.25;;;11.50;99.90;;;;;;4949311;29;20440;-51
2023/11/22 06:59:28;;;;;;;45.47;7.70;;;11.50;99.90;;;;;;4949681;29;20409;-51
2023/11/22 07:01:55;;;;;;;35.80;7.65;;;11.40;99.90;;;;;;4953745;28;20039;-51
2023/11/22 07:04:22;;;;;;;33.53;7.47;;;11.40;99.90;;;;;;4966442;29;20034;-51
2023/11/22 07:06:48;;;;;;;29.90;7.55;;;11.40;99.90;;;;;;4965443;28;20059;-51
2023/11/22 07:09:14;;;;;;;34.45;6.75;;;11.40;99.90;;;;;;4963222;28;20035;-52
2023/11/22 07:11:39;;;;;;;32.03;8.15;;;11.40;99.90;;;;;;4984931;28;20070;-51
2023/11/22 07:14:05;;;;;;;32.63;7.10;;;11.40;99.90;;;;;;4973243;28;20049;-51
2023/11/22 07:16:33;;;;;;;46.67;8.25;;;11.40;99.90;;;;;;4964890;28;20050;-51
2023/11/22 07:19:02;;;;;;;34.28;6.78;;;11.30;99.90;;;;;;4980580;28;20032;-51
2023/11/22 07:21:29;;;;;;;38.13;7.68;;;11.30;99.90;;;;;;4980618;28;20023;-51
2023/11/22 07:23:55;;;;;;;26.05;6.65;;;11.30;99.90;;;;;;4965391;28;20023;-51
2023/11/22 07:26:21;;;;;;;28.50;6.78;;;11.30;99.90;;;;;;4964856;29;20055;-51
2023/11/22 07:28:46;;;;;;;26.00;6.32;;;11.30;99.90;;;;;;4965199;28;20099;-52
2023/11/22 07:31:12;;;;;;;33.65;6.75;;;11.30;99.90;;;;;;4966573;28;20035;-51
2023/11/22 07:33:38;;;;;;;32.10;7.15;;;11.30;99.90;;;;;;4978774;28;20495;-51
2023/11/22 07:36:04;;;;;;;30.08;6.90;;;11.30;99.90;;;;;;4963875;29;20038;-51
2023/11/22 07:38:31;;;;;;;24.35;6.78;;;11.30;99.90;;;;;;4966889;29;20031;-51
2023/11/22 07:40:57;;;;;;;16.70;5.47;;;11.20;99.90;;;;;;4967361;29;20027;-51
2023/11/22 07:43:23;;;;;;;29.25;7.53;;;11.20;99.90;;;;;;4978157;28;20040;-51
2023/11/22 07:45:50;;;;;;;23.73;7.00;;;11.20;99.90;;;;;;4963273;28;20095;-51
2023/11/22 07:48:16;;;;;;;27.83;6.53;;;11.20;99.90;;;;;;4963097;29;20032;-51
2023/11/22 07:50:45;;;;;;;48.30;9.40;;;11.20;99.90;;;;;;4953005;29;20046;-51
2023/11/22 07:53:14;;;;;;;47.47;8.50;;;11.30;99.90;;;;;;4982252;28;20035;-51
2023/11/22 07:55:41;;;;;;;52.55;9.00;;;11.20;99.90;;;;;;4982564;28;20043;-51
2023/11/22 07:58:07;;;;;;;26.83;6.50;;;11.30;99.90;;;;;;4967670;28;20035;-52
2023/11/22 08:00:36;;;;;;;34.78;7.03;;;11.20;99.90;;;;;;4981926;28;20046;-52
2023/11/22 08:03:02;;;;;;;24.33;5.95;;;11.30;99.90;;;;;;4966486;28;20043;-50
2023/11/22 08:05:29;;;;;;;35.75;7.05;;;11.30;99.90;;;;;;4982457;28;20023;-51
2023/11/22 08:07:54;;;;;;;39.70;8.82;;;11.30;99.90;;;;;;4982378;28;20031;-51
2023/11/22 08:10:20;;;;;;;39.47;7.57;;;11.20;99.90;;;;;;4981947;28;20033;-51
2023/11/22 08:12:46;;;;;;;39.70;6.82;;;11.20;99.90;;;;;;4967463;28;20053;-51
2023/11/22 08:15:13;;;;;;;27.45;6.45;;;11.20;99.90;;;;;;4967480;28;20035;-51
2023/11/22 08:17:39;;;;;;;35.33;6.30;;;11.20;99.80;;;;;;4983002;28;20028;-51
2023/11/22 08:20:06;;;;;;;35.97;6.68;;;11.20;99.70;;;;;;4978570;28;20027;-51
2023/11/22 08:22:35;;;;;;;32.72;7.38;;;11.20;99.50;;;;;;4981632;28;20035;-51
2023/11/22 08:25:03;;;;;;;38.47;7.03;;;11.20;99.50;;;;;;4982043;28;20054;-52
2023/11/22 08:27:28;;;;;;;35.53;8.25;;;11.20;99.50;;;;;;4963925;28;20094;-51
2023/11/22 08:29:54;;;;;;;41.35;8.00;;;11.20;99.60;;;;;;4980908;28;20027;-51
2023/11/22 08:32:23;;;;;;;60.63;8.52;;;11.10;99.70;;;;;;4966389;28;20487;-51
2023/11/22 08:34:49;;;;;;;58.75;7.28;;;11.20;99.60;;;;;;4978955;28;20085;-51
2023/11/22 08:37:15;;;;;;;40.85;7.80;;;11.20;99.50;;;;;;4979871;28;20039;-51
2023/11/22 08:39:41;;;;;;;50.28;7.50;;;11.20;99.50;;;;;;4981211;28;20033;-51
2023/11/22 08:42:09;;;;;;;38.60;7.13;;;11.20;99.40;;;;;;4981179;28;20027;-51
2023/11/22 08:44:36;;;;;;;55.13;7.55;;;11.20;99.30;;;;;;4970345;28;20019;-51
2023/11/22 08:47:03;;;;;;;42.45;7.43;;;11.20;99.20;;;;;;4970280;29;20085;-51
2023/11/22 08:49:28;;;;;;;95.50;10.70;;;11.20;99.10;;;;;;4948839;29;20039;-51
2023/11/22 08:51:54;;;;;;;58.60;7.82;;;11.20;99.00;;;;;;4978041;28;20035;-51
2023/11/22 08:54:19;;;;;;;67.35;9.95;;;11.20;99.10;;;;;;4968293;28;20127;-51
2023/11/22 08:56:46;;;;;;;57.40;8.00;;;11.20;99.10;;;;;;4966140;28;20023;-51
2023/11/22 08:59:12;;;;;;;61.20;9.10;;;11.20;99.10;;;;;;4951125;29;20040;-51
2023/11/22 09:01:38;;;;;;;58.35;8.80;;;11.20;99.10;;;;;;4965075;29;20031;-51
2023/11/22 09:04:03;;;;;;;71.55;8.38;;;11.20;99.10;;;;;;4976031;28;20031;-51
2023/11/22 09:06:34;;;;;;;78.15;9.15;;;11.20;99.10;;;;;;4980058;28;20020;-52
2023/11/22 09:09:00;;;;;;;85.28;9.70;;;11.20;99.20;;;;;;4977182;28;20055;-51
2023/11/22 09:11:26;;;;;;;63.35;8.57;;;11.20;99.30;;;;;;4979071;28;20024;-52
2023/11/22 09:13:53;;;;;;;74.35;10.18;;;11.20;99.30;;;;;;4979182;28;20493;-51
2023/11/22 09:16:21;;;;;;;78.65;9.40;;;11.20;99.40;;;;;;4967095;28;20050;-51
2023/11/22 09:18:48;;;;;;;57.72;9.15;;;11.20;99.40;;;;;;4985242;28;20026;-51
2023/11/22 09:21:13;;;;;;;51.35;9.10;;;11.20;99.20;;;;;;4964713;28;20093;-51
2023/11/22 09:23:39;;;;;;;46.58;7.63;;;11.20;99.00;;;;;;4966164;28;20477;-51
2023/11/22 09:26:05;;;;;;;67.53;8.60;;;11.20;99.00;;;;;;4978929;28;20031;-51
2023/11/22 09:28:31;;;;;;;136.73;14.95;;;11.20;98.90;;;;;;4980955;28;20046;-51
2023/11/22 09:31:05;;;;;;;65.20;9.63;;;11.20;98.90;;;;;;4978697;28;20091;-51
2023/11/22 09:33:31;;;;;;;88.90;9.88;;;11.10;98.90;;;;;;4962902;28;20045;-51
2023/11/22 09:35:58;;;;;;;53.13;8.13;;;11.10;98.80;;;;;;4964843;28;20091;-51
2023/11/22 09:38:23;;;;;;;72.57;9.27;;;11.10;98.70;;;;;;4978989;28;20039;-51
2023/11/22 09:40:49;;;;;;;77.68;9.98;;;11.10;98.50;;;;;;4981226;28;20024;-51
2023/11/22 09:43:17;;;;;;;90.72;10.00;;;11.10;98.40;;;;;;4982286;28;20035;-51
2023/11/22 09:45:45;;;;;;;50.95;8.57;;;11.10;98.50;;;;;;4948847;29;20035;-51
2023/11/22 09:48:18;;;;;;;72.05;9.63;;;11.20;98.40;;;;;;4986264;28;20047;-51
2023/11/22 09:51:11;;;;;;;52.42;8.00;;;11.10;98.20;;;;;;4983316;28;20054;-51
2023/11/22 09:53:40;;;;;;;82.10;10.15;;;11.10;98.40;;;;;;4960802;29;20032;-51
2023/11/22 09:56:07;;;;;;;92.97;11.40;;;11.10;98.20;;;;;;4966281;28;20078;-51
2023/11/22 09:58:34;;;;;;;96.10;12.48;;;11.10;98.20;;;;;;4981114;28;20038;-51
2023/11/22 10:01:03;;;;;;;91.90;13.07;;;11.10;98.10;;;;;;4966319;28;20038;-51
2023/11/22 10:03:29;;;;;;;61.53;9.55;;;11.10;98.20;;;;;;4982528;28;20024;-51
2023/11/22 10:05:57;;;;;;;120.90;12.70;;;11.10;98.00;;;;;;4981418;28;20027;-51
2023/11/22 10:08:23;;;;;;;87.07;11.00;;;11.10;98.10;;;;;;4981022;28;20079;-51
2023/11/22 10:10:51;;;;;;;75.80;10.80;;;11.10;98.20;;;;;;4973758;28;20034;-51
2023/11/22 10:13:20;;;;;;;87.97;10.95;;;11.10;98.10;;;;;;4980010;28;20054;-51
2023/11/22 10:15:45;;;;;;;95.32;11.05;;;11.10;98.10;;;;;;4949569;29;20028;-51
2023/11/22 10:18:11;;;;;;;75.70;9.20;;;11.10;98.00;;;;;;4965624;28;20488;-51
2023/11/22 10:20:40;;;;;;;101.35;10.95;;;11.10;97.90;;;;;;4983736;28;20090;-51
2023/11/22 10:23:13;;;;;;;97.28;10.85;;;11.10;97.60;;;;;;4951801;29;20152;-51
2023/11/22 10:25:49;;;;;;;70.03;9.45;;;11.10;97.60;;;;;;4967407;29;20065;-51
2023/11/22 10:28:22;;;;;;;63.40;10.20;;;11.10;97.80;;;;;;4983010;28;20039;-52
2023/11/22 10:30:49;;;;;;;74.07;10.38;;;11.10;97.80;;;;;;4983226;28;20095;-51
2023/11/22 10:33:15;;;;;;;73.13;10.07;;;11.10;97.60;;;;;;4982932;28;20425;-51
2023/11/22 10:35:45;;;;;;;90.13;10.98;;;11.10;97.50;;;;;;4983352;28;20055;-49
2023/11/22 10:38:13;;;;;;;110.80;12.93;;;11.10;97.40;;;;;;4983179;28;20042;-51
2023/11/22 10:40:38;;;;;;;102.20;11.57;;;11.10;97.40;;;;;;4979613;28;20110;-51
2023/11/22 10:43:04;;;;;;;156.35;15.10;;;11.10;97.20;;;;;;4949288;29;20076;-51
2023/11/22 10:45:31;;;;;;;123.13;13.48;;;11.10;97.20;;;;;;4980079;28;20035;-51
2023/11/22 10:47:57;;;;;;;105.45;13.15;;;11.10;97.30;;;;;;4979697;28;20074;-51
2023/11/22 10:50:22;;;;;;;100.25;11.98;;;11.10;97.40;;;;;;4980692;28;20373;-52
2023/11/22 10:52:52;;;;;;;121.65;13.70;;;11.10;97.30;;;;;;4982835;28;20134;-51
2023/11/22 10:55:17;;;;;;;94.22;11.25;;;11.10;97.10;;;;;;4982321;28;20031;-51
2023/11/22 10:57:50;;;;;;;90.18;11.43;;;11.10;97.00;;;;;;4982789;28;20095;-51
2023/11/22 11:00:16;;;;;;;99.50;9.30;;;11.10;96.90;;;;;;4978262;28;20484;-51
2023/11/22 11:02:49;;;;;;;80.45;10.27;;;11.10;96.70;;;;;;4979295;28;20043;-51
2023/11/22 11:05:28;;;;;;;93.95;11.00;;;11.10;96.50;;;;;;4978517;28;20034;-51
2023/11/22 11:08:10;;;;;;;102.72;10.65;;;11.10;96.40;;;;;;4946829;28;20107;-52
2023/11/22 11:10:42;;;;;;;64.22;9.40;;;11.10;96.30;;;;;;4959517;28;20031;-51
2023/11/22 11:13:11;;;;;;;75.60;9.38;;;11.10;96.20;;;;;;4982354;28;20035;-51
2023/11/22 11:15:37;;;;;;;80.20;9.70;;;11.10;96.20;;;;;;4979439;28;20030;-52
2023/11/22 11:18:04;;;;;;;63.25;8.20;;;11.10;96.10;;;;;;4981902;28;20027;-52
2023/11/22 11:20:53;;;;;;;53.28;7.75;;;11.10;96.00;;;;;;4979242;28;20032;-51
2023/11/22 11:23:38;;;;;;;60.08;8.20;;;11.10;95.90;;;;;;4960457;28;20065;-51
2023/11/22 11:26:21;;;;;;;68.70;7.47;;;11.10;95.90;;;;;;4956366;28;20089;-51
2023/11/22 11:28:48;;;;;;;54.00;7.72;;;11.00;95.90;;;;;;4976205;28;20051;-51
2023/11/22 11:31:17;;;;;;;45.50;7.18;;;11.10;95.80;;;;;;4967418;28;20027;-52
2023/11/22 11:33:48;;;;;;;55.65;7.10;;;11.10;95.80;;;;;;4981845;28;20132;-51
2023/11/22 11:36:24;;;;;;;47.50;7.32;;;11.10;95.70;;;;;;4974097;28;20023;-51
2023/11/22 11:38:54;;;;;;;43.13;6.35;;;11.10;95.70;;;;;;4964031;29;20028;-51
2023/11/22 11:41:27;;;;;;;47.50;7.82;;;11.10;95.80;;;;;;4978812;28;20087;-51
2023/11/22 11:43:53;;;;;;;54.35;8.20;;;11.10;95.60;;;;;;4976825;28;20090;-51
2023/11/22 11:46:19;;;;;;;76.60;8.68;;;11.00;95.60;;;;;;4978502;28;20388;-51
2023/11/22 11:48:51;;;;;;;46.15;6.43;;;11.00;95.60;;;;;;4961684;29;20035;-51
2023/11/22 11:51:17;;;;;;;45.83;6.28;;;11.00;95.50;;;;;;4963933;28;20042;-51
2023/11/22 11:53:47;;;;;;;58.95;8.52;;;11.00;95.40;;;;;;4971704;28;20085;-51
2023/11/22 11:56:13;;;;;;;49.17;8.48;;;11.10;95.30;;;;;;4981495;28;20082;-51
2023/11/22 11:58:40;;;;;;;49.05;8.18;;;11.00;95.30;;;;;;4966851;28;20036;-51
2023/11/22 12:01:07;;;;;;;46.65;6.95;;;11.10;95.40;;;;;;4976148;28;20031;-51
2023/11/22 12:03:33;;;;;;;48.70;8.10;;;11.00;95.40;;;;;;4961958;29;20087;-51
2023/11/22 12:05:58;;;;;;;46.65;6.32;;;11.00;95.40;;;;;;4982150;28;20027;-51
2023/11/22 12:08:24;;;;;;;36.80;5.18;;;11.00;95.40;;;;;;4965212;28;20041;-51
2023/11/22 12:10:50;;;;;;;29.05;4.65;;;11.10;95.30;;;;;;4978146;28;20026;-51
2023/11/22 12:13:20;;;;;;;35.45;5.88;;;11.10;95.10;;;;;;4984527;28;20102;-52
2023/11/22 12:15:47;;;;;;;56.25;6.20;;;11.10;94.90;;;;;;4991165;28;20027;-51
2023/11/22 12:18:12;;;;;;;40.90;4.93;;;11.10;94.80;;;;;;4980699;28;20036;-51
2023/11/22 12:20:39;;;;;;;45.80;5.68;;;11.20;94.90;;;;;;4981373;28;20029;-52
2023/11/22 12:23:04;;;;;;;47.60;5.22;;;11.10;94.70;;;;;;4964163;29;20043;-52
2023/11/22 12:25:30;;;;;;;48.88;6.28;;;11.10;94.80;;;;;;4985560;28;20027;-52
2023/11/22 12:27:56;;;;;;;62.00;6.78;;;11.20;94.60;;;;;;4976050;28;20081;-52